createdAt,value
2023-01-18T00:10:04.021Z,1.58
2023-01-18T00:12:30.754Z,1.71
2023-01-18T00:14:57.417Z,1.87
2023-01-18T00:17:24.129Z,2.05
2023-01-18T00:19:50.797Z,2.25
2023-01-18T00:22:17.483Z,2.48
2023-01-18T00:24:44.091Z,2.69
2023-01-18T00:27:10.791Z,2.91
2023-01-18T00:29:37.425Z,3.13
2023-01-18T00:32:04.550Z,3.32
2023-01-18T00:34:31.618Z,3.47
2023-01-18T00:36:58.336Z,3.62
2023-01-18T00:39:24.963Z,3.78
2023-01-18T00:42:10.499Z,3.90
2023-01-18T00:44:37.282Z,4.04
2023-01-18T00:47:03.959Z,4.18
2023-01-18T00:49:30.679Z,4.29
2023-01-18T00:51:58.789Z,4.42
2023-01-18T00:54:25.575Z,4.53
2023-01-18T00:56:52.225Z,4.64
2023-01-18T00:59:18.965Z,4.74
2023-01-18T01:01:45.707Z,4.83
2023-01-18T01:04:31.556Z,4.92
2023-01-18T01:06:58.218Z,5.01
2023-01-18T01:09:26.154Z,5.09
2023-01-18T01:12:12.155Z,5.17
2023-01-18T01:15:00.027Z,5.27
2023-01-18T01:17:46.809Z,5.35
2023-01-18T01:20:32.309Z,5.42
2023-01-18T01:23:27.000Z,5.50
2023-01-18T01:26:09.170Z,5.57
2023-01-18T01:28:39.906Z,5.62
2023-01-18T01:31:08.278Z,5.66
2023-01-18T01:33:35.610Z,5.71
2023-01-18T01:36:04.878Z,5.74
2023-01-18T01:38:31.722Z,5.76
2023-01-18T01:41:08.992Z,5.78
2023-01-18T01:43:49.149Z,5.82
2023-01-18T01:46:25.869Z,5.85
2023-01-18T01:48:57.601Z,5.88
2023-01-18T01:51:24.328Z,5.89
2023-01-18T01:53:51.030Z,5.92
2023-01-18T01:56:18.771Z,5.95
2023-01-18T01:58:45.562Z,5.98
2023-01-18T02:01:12.324Z,5.99
2023-01-18T02:03:39.399Z,6.02
2023-01-18T02:06:24.736Z,6.07
2023-01-18T02:08:51.445Z,6.12
2023-01-18T02:11:18.068Z,6.16
2023-01-18T02:13:44.753Z,6.21
2023-01-18T02:16:34.181Z,6.24
2023-01-18T02:19:25.917Z,6.23
2023-01-18T02:21:56.236Z,6.24
2023-01-18T02:24:32.321Z,6.23
2023-01-18T02:27:22.439Z,6.23
2023-01-18T02:30:10.135Z,6.24
2023-01-18T02:33:03.403Z,6.25
2023-01-18T02:35:54.571Z,6.24
2023-01-18T02:38:41.998Z,6.21
2023-01-18T02:41:21.990Z,6.19
2023-01-18T02:44:08.804Z,6.18
2023-01-18T02:46:35.882Z,6.21
2023-01-18T02:49:18.021Z,6.21
2023-01-18T02:51:44.701Z,6.22
2023-01-18T02:54:11.854Z,6.23
2023-01-18T02:56:42.672Z,6.23
2023-01-18T02:59:18.475Z,6.22
2023-01-18T03:01:59.138Z,6.22
2023-01-18T03:04:37.188Z,6.22
2023-01-18T03:56:52.929Z,5.59
2023-01-18T03:59:19.640Z,5.59
2023-01-18T04:01:48.239Z,5.63
2023-01-18T04:04:15.124Z,5.69
2023-01-18T04:06:42.495Z,5.76
2023-01-18T04:09:09.467Z,5.82
2023-01-18T04:11:36.310Z,5.89
2023-01-18T04:14:02.974Z,5.94
2023-01-18T04:16:29.630Z,6.00
2023-01-18T04:18:56.297Z,6.06
2023-01-18T04:21:23.095Z,6.11
2023-01-18T04:23:49.745Z,6.15
2023-01-18T04:26:19.347Z,6.19
2023-01-18T04:28:46.135Z,6.22
2023-01-18T04:31:12.790Z,6.24
2023-01-18T04:33:39.553Z,6.25
2023-01-18T04:36:06.906Z,6.28
2023-01-18T04:38:33.549Z,6.29
2023-01-18T04:41:06.549Z,6.30
2023-01-18T04:43:33.256Z,6.32
2023-01-18T04:46:00.221Z,6.31
2023-01-18T04:48:26.886Z,6.33
2023-01-18T04:50:53.557Z,6.34
2023-01-18T04:53:20.532Z,6.35
2023-01-18T04:55:47.213Z,6.35
2023-01-18T04:58:15.103Z,6.35
2023-01-18T05:00:41.909Z,6.33
2023-01-18T05:03:09.656Z,6.35
2023-01-18T05:05:36.589Z,6.36
2023-01-18T05:08:03.634Z,6.36
2023-01-18T05:10:30.453Z,6.37
2023-01-18T05:12:57.691Z,6.38
2023-01-18T05:15:24.503Z,6.37
2023-01-18T05:17:51.204Z,6.38
2023-01-18T05:20:18.070Z,6.38
2023-01-18T05:22:44.833Z,6.39
2023-01-18T05:25:11.471Z,6.39
2023-01-18T05:27:38.265Z,6.39
2023-01-18T05:30:06.846Z,6.39
2023-01-18T05:32:33.724Z,6.39
2023-01-18T05:35:00.416Z,6.40
2023-01-18T05:37:27.057Z,6.42
2023-01-18T05:39:53.705Z,6.44
2023-01-18T05:42:20.446Z,6.45
2023-01-18T05:44:47.117Z,6.47
2023-01-18T05:47:13.863Z,6.49
2023-01-18T05:49:41.943Z,6.49
2023-01-18T05:52:08.741Z,6.50
2023-01-18T05:54:35.396Z,6.50
2023-01-18T05:57:02.421Z,6.50
2023-01-18T05:59:29.140Z,6.49
2023-01-18T06:01:56.711Z,6.49
2023-01-18T06:04:23.539Z,6.50
2023-01-18T06:06:50.328Z,6.52
2023-01-18T06:09:17.057Z,6.54
2023-01-18T06:11:43.783Z,6.56
2023-01-18T06:14:10.440Z,6.59
2023-01-18T06:16:37.106Z,6.62
2023-01-18T06:19:03.822Z,6.65
2023-01-18T06:21:30.445Z,6.67
2023-01-18T06:23:57.222Z,6.69
2023-01-18T08:14:51.877Z,7.33
2023-01-18T08:17:18.700Z,7.37
2023-01-18T08:19:45.650Z,7.47
2023-01-18T08:22:12.285Z,7.56
2023-01-18T08:24:38.939Z,7.66
2023-01-18T08:27:05.590Z,7.76
2023-01-18T08:29:32.207Z,7.87
2023-01-18T08:32:00.798Z,7.97
2023-01-18T08:34:27.455Z,8.06
2023-01-18T08:36:54.119Z,8.14
2023-01-18T08:39:21.127Z,8.21
2023-01-18T08:41:49.572Z,8.28
2023-01-18T08:44:16.388Z,8.35
2023-01-18T08:46:43.091Z,8.41
2023-01-18T08:49:10.410Z,8.48
2023-01-18T08:51:37.175Z,8.54
2023-01-18T08:54:06.613Z,8.58
2023-01-18T08:56:33.351Z,8.63
2023-01-18T08:59:02.519Z,8.68
2023-01-18T09:01:29.608Z,8.71
2023-01-18T09:03:56.619Z,8.75
2023-01-18T09:06:23.538Z,8.78
2023-01-18T09:08:50.277Z,8.82
2023-01-18T09:11:17.499Z,8.84
2023-01-18T09:13:59.472Z,8.87
2023-01-18T09:16:27.480Z,8.90
2023-01-18T09:18:56.325Z,8.91
2023-01-18T09:21:23.252Z,8.91
2023-01-18T09:23:51.048Z,8.93
2023-01-18T09:26:20.437Z,8.95
2023-01-18T09:28:48.819Z,8.98
2023-01-18T09:31:15.720Z,9.03
2023-01-18T09:33:51.213Z,9.04
2023-01-18T09:36:21.544Z,9.06
2023-01-18T09:38:48.410Z,9.08
2023-01-18T16:20:54.591Z,9.12
2023-01-18T16:23:23.131Z,9.14
2023-01-18T16:26:02.495Z,9.20
2023-01-18T16:28:29.309Z,9.28
2023-01-18T16:30:56.242Z,9.35
2023-01-18T16:33:23.855Z,9.42
2023-01-18T16:35:50.823Z,9.48
2023-01-18T16:38:18.885Z,9.56
2023-01-18T16:40:48.678Z,9.62
2023-01-18T16:43:26.876Z,9.69
2023-01-18T16:45:55.189Z,9.76
2023-01-18T16:48:23.360Z,9.81
2023-01-18T16:50:50.177Z,9.85
2023-01-18T16:53:17.662Z,9.89
2023-01-18T16:55:44.983Z,9.94
2023-01-18T16:58:15.641Z,9.95
2023-01-18T17:00:59.176Z,9.98
2023-01-18T17:03:26.188Z,10.00
2023-01-18T17:05:53.234Z,10.02
2023-01-18T17:08:19.927Z,10.05
2023-01-18T17:10:47.667Z,10.07
2023-01-18T17:13:14.590Z,10.10
2023-01-18T17:15:41.888Z,10.13
2023-01-18T17:18:13.558Z,10.15
2023-01-18T17:20:40.337Z,10.19
2023-01-18T17:23:07.053Z,10.20
2023-01-18T17:25:33.970Z,10.23
2023-01-18T17:28:01.056Z,10.25
2023-01-18T17:30:27.993Z,10.23
2023-01-18T17:32:54.944Z,10.22
2023-01-18T17:35:22.921Z,10.21
2023-01-18T17:37:54.581Z,10.21
2023-01-18T17:40:38.660Z,10.22
2023-01-18T22:11:03.542Z,5.05
2023-01-18T22:13:30.265Z,5.02
2023-01-18T22:15:56.953Z,5.03
2023-01-18T22:18:23.613Z,5.06
2023-01-18T22:20:56.576Z,5.10
2023-01-18T22:23:23.307Z,5.13
2023-01-18T22:25:54.145Z,5.18
2023-01-18T22:28:20.904Z,5.22
2023-01-18T22:30:47.974Z,5.24
2023-01-18T22:33:14.832Z,5.27
2023-01-18T22:35:41.479Z,5.29
2023-01-18T22:38:09.775Z,5.29
2023-01-18T22:40:36.533Z,5.27
2023-01-18T22:43:03.572Z,5.21
2023-01-18T22:45:30.240Z,5.14
2023-01-18T22:47:57.028Z,5.08
2023-01-18T22:50:23.850Z,5.04
2023-01-18T22:52:50.680Z,5.01
2023-01-18T22:55:17.378Z,4.97
2023-01-18T22:57:44.021Z,4.93
2023-01-18T23:00:11.427Z,4.91
2023-01-18T23:02:38.335Z,4.83
2023-01-18T23:05:05.498Z,4.74
2023-01-18T23:07:32.212Z,4.67
2023-01-18T23:09:58.868Z,4.58
2023-01-18T23:12:25.525Z,4.54
2023-01-18T23:15:11.033Z,4.51
2023-01-18T23:17:40.583Z,4.49
2023-01-18T23:20:10.510Z,4.47
2023-01-18T23:22:37.609Z,4.44
2023-01-18T23:25:04.565Z,4.41
2023-01-18T23:27:31.317Z,4.38
2023-01-18T23:29:58.944Z,4.37
2023-01-18T23:32:26.631Z,4.34
2023-01-18T23:34:54.092Z,4.30
2023-01-18T23:37:20.938Z,4.18
2023-01-18T23:40:06.554Z,4.02
2023-01-18T23:42:51.897Z,3.89
2023-01-18T23:45:37.416Z,3.79
2023-01-18T23:48:41.331Z,3.73
2023-01-18T23:51:27.961Z,3.67
2023-01-18T23:54:15.424Z,3.62
2023-01-18T23:56:43.285Z,3.61
2023-01-18T23:59:10.089Z,3.62
